sensor_id;sensor_type;location;lat;lon;timestamp;P1;durP1;ratioP1;P2;durP2;ratioP2
4434;SDS011;46552;52.150;8.428;2023-09-18T00:01:21;8.63;;;6.17;;
4434;SDS011;46552;52.150;8.428;2023-09-18T00:03:48;10.37;;;5.50;;
4434;SDS011;46552;52.150;8.428;2023-09-18T00:06:15;8.20;;;4.60;;
4434;SDS011;46552;52.150;8.428;2023-09-18T00:08:42;12.80;;;5.60;;
4434;SDS011;46552;52.150;8.428;2023-09-18T00:11:09;9.97;;;5.87;;
4434;SDS011;46552;52.150;8.428;2023-09-18T00:13:37;10.83;;;5.90;;
4434;SDS011;46552;52.150;8.428;2023-09-18T00:16:05;12.00;;;8.17;;
4434;SDS011;46552;52.150;8.428;2023-09-18T00:18:34;9.93;;;7.27;;
4434;SDS011;46552;52.150;8.428;2023-09-18T00:21:02;11.77;;;7.90;;
4434;SDS011;46552;52.150;8.428;2023-09-18T00:23:29;12.83;;;7.93;;
4434;SDS011;46552;52.150;8.428;2023-09-18T00:25:58;14.27;;;8.70;;
4434;SDS011;46552;52.150;8.428;2023-09-18T00:28:25;13.73;;;9.77;;
4434;SDS011;46552;52.150;8.428;2023-09-18T00:30:52;12.20;;;8.37;;
4434;SDS011;46552;52.150;8.428;2023-09-18T00:33:22;15.03;;;9.50;;
4434;SDS011;46552;52.150;8.428;2023-09-18T00:35:49;16.90;;;8.93;;
4434;SDS011;46552;52.150;8.428;2023-09-18T00:38:17;16.10;;;9.23;;
4434;SDS011;46552;52.150;8.428;2023-09-18T00:40:45;15.97;;;9.53;;
4434;SDS011;46552;52.150;8.428;2023-09-18T00:43:12;16.17;;;9.00;;
4434;SDS011;46552;52.150;8.428;2023-09-18T00:45:40;15.93;;;8.70;;
4434;SDS011;46552;52.150;8.428;2023-09-18T00:48:08;19.00;;;8.70;;
4434;SDS011;46552;52.150;8.428;2023-09-18T00:50:38;19.87;;;10.20;;
4434;SDS011;46552;52.150;8.428;2023-09-18T00:53:07;15.93;;;9.97;;
4434;SDS011;46552;52.150;8.428;2023-09-18T00:55:35;14.13;;;10.17;;
4434;SDS011;46552;52.150;8.428;2023-09-18T00:58:04;15.47;;;9.13;;
4434;SDS011;46552;52.150;8.428;2023-09-18T01:00:31;19.40;;;9.70;;
4434;SDS011;46552;52.150;8.428;2023-09-18T01:02:59;18.67;;;9.47;;
4434;SDS011;46552;52.150;8.428;2023-09-18T01:05:28;14.10;;;9.97;;
4434;SDS011;46552;52.150;8.428;2023-09-18T01:07:59;17.47;;;9.50;;
4434;SDS011;46552;52.150;8.428;2023-09-18T01:10:28;11.97;;;9.73;;
4434;SDS011;46552;52.150;8.428;2023-09-18T01:13:00;14.60;;;10.37;;
4434;SDS011;46552;52.150;8.428;2023-09-18T01:15:33;13.80;;;9.70;;
4434;SDS011;46552;52.150;8.428;2023-09-18T01:18:06;19.20;;;10.23;;
4434;SDS011;46552;52.150;8.428;2023-09-18T01:20:35;16.37;;;9.10;;
4434;SDS011;46552;52.150;8.428;2023-09-18T01:23:03;18.60;;;11.00;;
4434;SDS011;46552;52.150;8.428;2023-09-18T01:25:30;22.80;;;11.27;;
4434;SDS011;46552;52.150;8.428;2023-09-18T01:27:59;14.70;;;9.80;;
4434;SDS011;46552;52.150;8.428;2023-09-18T01:30:27;20.60;;;9.30;;
4434;SDS011;46552;52.150;8.428;2023-09-18T01:32:54;15.20;;;10.40;;
4434;SDS011;46552;52.150;8.428;2023-09-18T01:35:23;14.37;;;9.80;;
4434;SDS011;46552;52.150;8.428;2023-09-18T01:37:54;15.77;;;10.63;;
4434;SDS011;46552;52.150;8.428;2023-09-18T01:40:24;22.90;;;10.20;;
4434;SDS011;46552;52.150;8.428;2023-09-18T01:42:52;18.13;;;10.40;;
4434;SDS011;46552;52.150;8.428;2023-09-18T01:45:19;21.33;;;11.00;;
4434;SDS011;46552;52.150;8.428;2023-09-18T01:47:46;15.43;;;10.17;;
4434;SDS011;46552;52.150;8.428;2023-09-18T01:50:14;18.70;;;10.50;;
4434;SDS011;46552;52.150;8.428;2023-09-18T01:52:42;14.67;;;10.00;;
4434;SDS011;46552;52.150;8.428;2023-09-18T01:55:11;15.70;;;11.03;;
4434;SDS011;46552;52.150;8.428;2023-09-18T01:57:39;16.30;;;10.07;;
4434;SDS011;46552;52.150;8.428;2023-09-18T02:00:08;15.93;;;10.77;;
4434;SDS011;46552;52.150;8.428;2023-09-18T02:02:37;18.63;;;10.50;;
4434;SDS011;46552;52.150;8.428;2023-09-18T02:05:05;15.70;;;9.93;;
4434;SDS011;46552;52.150;8.428;2023-09-18T02:07:33;17.70;;;10.70;;
4434;SDS011;46552;52.150;8.428;2023-09-18T02:10:00;14.30;;;9.40;;
4434;SDS011;46552;52.150;8.428;2023-09-18T02:12:28;13.90;;;10.87;;
4434;SDS011;46552;52.150;8.428;2023-09-18T02:14:56;18.30;;;9.17;;
4434;SDS011;46552;52.150;8.428;2023-09-18T02:17:26;14.50;;;10.53;;
4434;SDS011;46552;52.150;8.428;2023-09-18T02:19:53;12.80;;;9.23;;
4434;SDS011;46552;52.150;8.428;2023-09-18T02:22:20;12.97;;;9.80;;
4434;SDS011;46552;52.150;8.428;2023-09-18T02:24:47;20.43;;;10.37;;
4434;SDS011;46552;52.150;8.428;2023-09-18T02:27:15;15.10;;;10.77;;
4434;SDS011;46552;52.150;8.428;2023-09-18T02:29:44;14.37;;;8.97;;
4434;SDS011;46552;52.150;8.428;2023-09-18T02:32:12;15.20;;;10.00;;
4434;SDS011;46552;52.150;8.428;2023-09-18T02:34:39;18.80;;;10.50;;
4434;SDS011;46552;52.150;8.428;2023-09-18T02:37:06;14.63;;;9.93;;
4434;SDS011;46552;52.150;8.428;2023-09-18T02:39:33;16.90;;;10.17;;
4434;SDS011;46552;52.150;8.428;2023-09-18T02:42:02;17.60;;;11.23;;
4434;SDS011;46552;52.150;8.428;2023-09-18T02:44:29;18.60;;;9.47;;
4434;SDS011;46552;52.150;8.428;2023-09-18T02:46:56;16.20;;;10.80;;
4434;SDS011;46552;52.150;8.428;2023-09-18T02:49:26;17.03;;;10.17;;
4434;SDS011;46552;52.150;8.428;2023-09-18T02:51:55;16.97;;;10.63;;
4434;SDS011;46552;52.150;8.428;2023-09-18T02:54:22;17.63;;;10.67;;
4434;SDS011;46552;52.150;8.428;2023-09-18T02:56:49;18.23;;;12.40;;
4434;SDS011;46552;52.150;8.428;2023-09-18T02:59:16;18.50;;;10.53;;
4434;SDS011;46552;52.150;8.428;2023-09-18T03:01:43;16.20;;;10.13;;
4434;SDS011;46552;52.150;8.428;2023-09-18T03:04:10;15.70;;;10.57;;
4434;SDS011;46552;52.150;8.428;2023-09-18T03:06:39;23.33;;;10.43;;
4434;SDS011;46552;52.150;8.428;2023-09-18T03:09:06;18.30;;;9.33;;
4434;SDS011;46552;52.150;8.428;2023-09-18T03:11:34;16.00;;;10.00;;
4434;SDS011;46552;52.150;8.428;2023-09-18T03:14:01;21.57;;;10.77;;
4434;SDS011;46552;52.150;8.428;2023-09-18T03:16:29;14.97;;;10.43;;
4434;SDS011;46552;52.150;8.428;2023-09-18T03:18:58;16.93;;;9.50;;
4434;SDS011;46552;52.150;8.428;2023-09-18T03:21:25;20.20;;;10.10;;
4434;SDS011;46552;52.150;8.428;2023-09-18T03:23:54;18.00;;;9.40;;
4434;SDS011;46552;52.150;8.428;2023-09-18T03:26:22;18.23;;;10.73;;
4434;SDS011;46552;52.150;8.428;2023-09-18T03:28:50;15.57;;;10.80;;
4434;SDS011;46552;52.150;8.428;2023-09-18T03:31:17;14.27;;;9.23;;
4434;SDS011;46552;52.150;8.428;2023-09-18T03:33:44;19.30;;;10.37;;
4434;SDS011;46552;52.150;8.428;2023-09-18T03:36:11;16.00;;;9.13;;
4434;SDS011;46552;52.150;8.428;2023-09-18T03:38:45;16.13;;;9.60;;
4434;SDS011;46552;52.150;8.428;2023-09-18T03:41:13;18.17;;;10.73;;
4434;SDS011;46552;52.150;8.428;2023-09-18T03:43:41;12.90;;;9.93;;
4434;SDS011;46552;52.150;8.428;2023-09-18T03:46:08;13.00;;;8.63;;
4434;SDS011;46552;52.150;8.428;2023-09-18T03:48:36;16.30;;;10.13;;
4434;SDS011;46552;52.150;8.428;2023-09-18T03:51:04;16.97;;;9.13;;
4434;SDS011;46552;52.150;8.428;2023-09-18T03:53:32;18.93;;;10.50;;
4434;SDS011;46552;52.150;8.428;2023-09-18T03:55:59;17.17;;;9.67;;
4434;SDS011;46552;52.150;8.428;2023-09-18T03:58:27;16.80;;;9.90;;
4434;SDS011;46552;52.150;8.428;2023-09-18T04:00:55;18.03;;;9.87;;
4434;SDS011;46552;52.150;8.428;2023-09-18T04:03:22;16.70;;;9.70;;
4434;SDS011;46552;52.150;8.428;2023-09-18T04:05:49;19.33;;;8.77;;
4434;SDS011;46552;52.150;8.428;2023-09-18T04:08:16;16.00;;;9.43;;
4434;SDS011;46552;52.150;8.428;2023-09-18T04:10:43;12.83;;;8.50;;
4434;SDS011;46552;52.150;8.428;2023-09-18T04:13:12;22.03;;;9.50;;
4434;SDS011;46552;52.150;8.428;2023-09-18T04:15:41;15.30;;;9.80;;
4434;SDS011;46552;52.150;8.428;2023-09-18T04:18:09;19.93;;;9.43;;
4434;SDS011;46552;52.150;8.428;2023-09-18T04:20:36;12.73;;;8.20;;
4434;SDS011;46552;52.150;8.428;2023-09-18T04:23:19;14.20;;;9.63;;
4434;SDS011;46552;52.150;8.428;2023-09-18T04:25:48;12.60;;;8.87;;
4434;SDS011;46552;52.150;8.428;2023-09-18T04:28:16;14.70;;;8.63;;
4434;SDS011;46552;52.150;8.428;2023-09-18T04:30:46;19.10;;;9.50;;
4434;SDS011;46552;52.150;8.428;2023-09-18T04:33:14;20.47;;;11.23;;
4434;SDS011;46552;52.150;8.428;2023-09-18T04:35:43;18.60;;;9.37;;
4434;SDS011;46552;52.150;8.428;2023-09-18T04:38:11;23.37;;;9.37;;
4434;SDS011;46552;52.150;8.428;2023-09-18T04:40:39;13.50;;;8.83;;
4434;SDS011;46552;52.150;8.428;2023-09-18T04:43:06;13.03;;;8.50;;
4434;SDS011;46552;52.150;8.428;2023-09-18T04:45:33;11.93;;;8.20;;
4434;SDS011;46552;52.150;8.428;2023-09-18T04:48:03;13.77;;;7.50;;
4434;SDS011;46552;52.150;8.428;2023-09-18T04:50:31;12.87;;;8.30;;
4434;SDS011;46552;52.150;8.428;2023-09-18T04:52:59;18.77;;;8.10;;
4434;SDS011;46552;52.150;8.428;2023-09-18T04:55:26;11.73;;;7.90;;
4434;SDS011;46552;52.150;8.428;2023-09-18T04:57:53;16.33;;;9.40;;
4434;SDS011;46552;52.150;8.428;2023-09-18T05:00:20;15.73;;;8.40;;
4434;SDS011;46552;52.150;8.428;2023-09-18T05:02:50;12.50;;;8.23;;
4434;SDS011;46552;52.150;8.428;2023-09-18T05:05:19;13.93;;;7.40;;
4434;SDS011;46552;52.150;8.428;2023-09-18T05:07:47;13.53;;;7.13;;
4434;SDS011;46552;52.150;8.428;2023-09-18T05:10:15;10.47;;;7.37;;
4434;SDS011;46552;52.150;8.428;2023-09-18T05:12:42;15.03;;;8.90;;
4434;SDS011;46552;52.150;8.428;2023-09-18T05:15:09;17.13;;;7.80;;
4434;SDS011;46552;52.150;8.428;2023-09-18T05:17:41;16.43;;;8.57;;
4434;SDS011;46552;52.150;8.428;2023-09-18T05:20:11;8.97;;;6.23;;
4434;SDS011;46552;52.150;8.428;2023-09-18T05:22:43;12.00;;;7.67;;
4434;SDS011;46552;52.150;8.428;2023-09-18T05:25:11;13.30;;;6.77;;
4434;SDS011;46552;52.150;8.428;2023-09-18T05:27:39;11.00;;;7.73;;
4434;SDS011;46552;52.150;8.428;2023-09-18T05:30:10;11.23;;;7.00;;
4434;SDS011;46552;52.150;8.428;2023-09-18T05:32:40;15.00;;;7.10;;
4434;SDS011;46552;52.150;8.428;2023-09-18T05:35:07;11.03;;;6.33;;
4434;SDS011;46552;52.150;8.428;2023-09-18T05:37:37;15.50;;;6.10;;
4434;SDS011;46552;52.150;8.428;2023-09-18T05:40:07;11.70;;;6.80;;
4434;SDS011;46552;52.150;8.428;2023-09-18T05:42:35;11.20;;;7.63;;
4434;SDS011;46552;52.150;8.428;2023-09-18T05:45:04;14.50;;;6.93;;
4434;SDS011;46552;52.150;8.428;2023-09-18T05:47:32;10.90;;;6.37;;
4434;SDS011;46552;52.150;8.428;2023-09-18T05:50:00;13.90;;;6.03;;
4434;SDS011;46552;52.150;8.428;2023-09-18T05:52:29;10.40;;;6.53;;
4434;SDS011;46552;52.150;8.428;2023-09-18T05:54:56;12.50;;;7.20;;
4434;SDS011;46552;52.150;8.428;2023-09-18T05:57:26;11.23;;;7.03;;
4434;SDS011;46552;52.150;8.428;2023-09-18T05:59:54;11.73;;;6.80;;
4434;SDS011;46552;52.150;8.428;2023-09-18T06:02:21;12.10;;;6.80;;
4434;SDS011;46552;52.150;8.428;2023-09-18T06:04:52;12.37;;;6.80;;
4434;SDS011;46552;52.150;8.428;2023-09-18T06:07:23;12.30;;;7.10;;
4434;SDS011;46552;52.150;8.428;2023-09-18T06:09:51;14.73;;;7.00;;
4434;SDS011;46552;52.150;8.428;2023-09-18T06:12:18;12.07;;;6.43;;
4434;SDS011;46552;52.150;8.428;2023-09-18T06:14:48;10.53;;;6.73;;
4434;SDS011;46552;52.150;8.428;2023-09-18T06:17:15;13.60;;;8.00;;
4434;SDS011;46552;52.150;8.428;2023-09-18T06:19:44;11.33;;;7.77;;
4434;SDS011;46552;52.150;8.428;2023-09-18T06:22:11;8.43;;;6.30;;
4434;SDS011;46552;52.150;8.428;2023-09-18T06:24:39;11.63;;;7.10;;
4434;SDS011;46552;52.150;8.428;2023-09-18T06:27:06;10.23;;;6.03;;
4434;SDS011;46552;52.150;8.428;2023-09-18T06:29:34;8.10;;;5.80;;
4434;SDS011;46552;52.150;8.428;2023-09-18T06:32:04;8.73;;;6.27;;
4434;SDS011;46552;52.150;8.428;2023-09-18T06:34:32;10.73;;;5.70;;
4434;SDS011;46552;52.150;8.428;2023-09-18T06:37:00;12.03;;;6.20;;
4434;SDS011;46552;52.150;8.428;2023-09-18T06:39:28;8.80;;;6.07;;
4434;SDS011;46552;52.150;8.428;2023-09-18T06:41:56;11.27;;;6.37;;
4434;SDS011;46552;52.150;8.428;2023-09-18T06:44:23;13.20;;;5.87;;
4434;SDS011;46552;52.150;8.428;2023-09-18T06:46:50;10.10;;;7.43;;
4434;SDS011;46552;52.150;8.428;2023-09-18T06:49:20;10.07;;;6.33;;
4434;SDS011;46552;52.150;8.428;2023-09-18T06:51:47;10.60;;;6.03;;
4434;SDS011;46552;52.150;8.428;2023-09-18T06:54:17;15.97;;;7.13;;
4434;SDS011;46552;52.150;8.428;2023-09-18T06:56:47;12.97;;;6.70;;
4434;SDS011;46552;52.150;8.428;2023-09-18T06:59:14;10.53;;;6.00;;
4434;SDS011;46552;52.150;8.428;2023-09-18T07:01:41;10.80;;;6.47;;
4434;SDS011;46552;52.150;8.428;2023-09-18T07:04:08;18.43;;;6.03;;
4434;SDS011;46552;52.150;8.428;2023-09-18T07:06:37;11.03;;;6.00;;
4434;SDS011;46552;52.150;8.428;2023-09-18T07:09:04;13.10;;;5.57;;
4434;SDS011;46552;52.150;8.428;2023-09-18T07:11:32;22.63;;;7.00;;
4434;SDS011;46552;52.150;8.428;2023-09-18T07:13:59;9.77;;;5.10;;
4434;SDS011;46552;52.150;8.428;2023-09-18T07:16:31;9.50;;;5.27;;
4434;SDS011;46552;52.150;8.428;2023-09-18T07:18:59;11.30;;;5.83;;
4434;SDS011;46552;52.150;8.428;2023-09-18T07:21:29;11.80;;;4.50;;
4434;SDS011;46552;52.150;8.428;2023-09-18T07:23:58;12.93;;;4.87;;
4434;SDS011;46552;52.150;8.428;2023-09-18T07:26:25;14.60;;;6.20;;
4434;SDS011;46552;52.150;8.428;2023-09-18T07:28:53;11.93;;;4.57;;
4434;SDS011;46552;52.150;8.428;2023-09-18T07:31:22;9.77;;;5.03;;
4434;SDS011;46552;52.150;8.428;2023-09-18T07:33:49;12.50;;;5.70;;
4434;SDS011;46552;52.150;8.428;2023-09-18T07:36:18;11.33;;;4.80;;
4434;SDS011;46552;52.150;8.428;2023-09-18T07:38:46;16.40;;;4.63;;
4434;SDS011;46552;52.150;8.428;2023-09-18T07:41:15;16.70;;;6.10;;
4434;SDS011;46552;52.150;8.428;2023-09-18T07:43:42;15.40;;;5.13;;
4434;SDS011;46552;52.150;8.428;2023-09-18T07:46:09;14.03;;;4.70;;
4434;SDS011;46552;52.150;8.428;2023-09-18T07:48:36;9.67;;;4.60;;
4434;SDS011;46552;52.150;8.428;2023-09-18T07:51:03;11.90;;;4.10;;
4434;SDS011;46552;52.150;8.428;2023-09-18T07:53:30;18.30;;;4.80;;
4434;SDS011;46552;52.150;8.428;2023-09-18T07:55:58;12.93;;;5.00;;
4434;SDS011;46552;52.150;8.428;2023-09-18T07:58:28;14.30;;;4.40;;
4434;SDS011;46552;52.150;8.428;2023-09-18T08:00:55;9.33;;;4.30;;
4434;SDS011;46552;52.150;8.428;2023-09-18T08:03:24;11.83;;;3.77;;
4434;SDS011;46552;52.150;8.428;2023-09-18T08:05:51;11.73;;;3.13;;
4434;SDS011;46552;52.150;8.428;2023-09-18T08:08:19;12.93;;;3.33;;
4434;SDS011;46552;52.150;8.428;2023-09-18T08:10:48;13.67;;;3.60;;
4434;SDS011;46552;52.150;8.428;2023-09-18T08:13:15;7.13;;;2.90;;
4434;SDS011;46552;52.150;8.428;2023-09-18T08:15:44;13.00;;;4.10;;
4434;SDS011;46552;52.150;8.428;2023-09-18T08:18:11;9.43;;;2.83;;
4434;SDS011;46552;52.150;8.428;2023-09-18T08:20:40;16.80;;;3.53;;
4434;SDS011;46552;52.150;8.428;2023-09-18T08:23:09;10.23;;;3.77;;
4434;SDS011;46552;52.150;8.428;2023-09-18T08:25:36;9.57;;;2.90;;
4434;SDS011;46552;52.150;8.428;2023-09-18T08:28:05;9.00;;;3.33;;
4434;SDS011;46552;52.150;8.428;2023-09-18T08:30:33;7.50;;;2.90;;
4434;SDS011;46552;52.150;8.428;2023-09-18T08:33:03;8.00;;;3.33;;
4434;SDS011;46552;52.150;8.428;2023-09-18T08:35:32;11.10;;;3.13;;
4434;SDS011;46552;52.150;8.428;2023-09-18T08:38:03;13.47;;;3.10;;
4434;SDS011;46552;52.150;8.428;2023-09-18T08:40:30;8.70;;;2.97;;
4434;SDS011;46552;52.150;8.428;2023-09-18T08:43:00;4.87;;;2.30;;
4434;SDS011;46552;52.150;8.428;2023-09-18T08:45:31;6.27;;;2.80;;
4434;SDS011;46552;52.150;8.428;2023-09-18T08:48:09;7.90;;;3.33;;
4434;SDS011;46552;52.150;8.428;2023-09-18T08:50:36;9.67;;;3.00;;
4434;SDS011;46552;52.150;8.428;2023-09-18T08:53:06;11.33;;;3.30;;
4434;SDS011;46552;52.150;8.428;2023-09-18T08:55:41;14.47;;;3.33;;
4434;SDS011;46552;52.150;8.428;2023-09-18T08:58:09;8.33;;;2.97;;
4434;SDS011;46552;52.150;8.428;2023-09-18T09:00:47;7.77;;;2.80;;
4434;SDS011;46552;52.150;8.428;2023-09-18T09:03:19;8.70;;;3.00;;
4434;SDS011;46552;52.150;8.428;2023-09-18T09:05:50;8.73;;;3.23;;
4434;SDS011;46552;52.150;8.428;2023-09-18T09:08:17;11.50;;;2.90;;
4434;SDS011;46552;52.150;8.428;2023-09-18T09:10:48;15.83;;;2.90;;
4434;SDS011;46552;52.150;8.428;2023-09-18T09:13:16;5.63;;;2.63;;
4434;SDS011;46552;52.150;8.428;2023-09-18T09:15:44;6.80;;;3.20;;
4434;SDS011;46552;52.150;8.428;2023-09-18T09:18:28;7.93;;;3.53;;
4434;SDS011;46552;52.150;8.428;2023-09-18T09:20:57;7.63;;;2.70;;
4434;SDS011;46552;52.150;8.428;2023-09-18T09:23:44;5.17;;;2.50;;
4434;SDS011;46552;52.150;8.428;2023-09-18T09:26:14;7.63;;;2.60;;
4434;SDS011;46552;52.150;8.428;2023-09-18T09:28:46;8.43;;;3.70;;
4434;SDS011;46552;52.150;8.428;2023-09-18T09:31:25;11.87;;;2.50;;
4434;SDS011;46552;52.150;8.428;2023-09-18T09:33:54;9.77;;;2.87;;
4434;SDS011;46552;52.150;8.428;2023-09-18T09:36:23;5.50;;;2.50;;
4434;SDS011;46552;52.150;8.428;2023-09-18T09:38:54;7.17;;;2.73;;
4434;SDS011;46552;52.150;8.428;2023-09-18T09:41:22;11.80;;;2.83;;
4434;SDS011;46552;52.150;8.428;2023-09-18T09:43:51;16.63;;;3.40;;
4434;SDS011;46552;52.150;8.428;2023-09-18T09:46:22;8.33;;;2.83;;
4434;SDS011;46552;52.150;8.428;2023-09-18T09:49:01;6.93;;;2.57;;
4434;SDS011;46552;52.150;8.428;2023-09-18T09:51:30;12.60;;;3.13;;
4434;SDS011;46552;52.150;8.428;2023-09-18T09:53:58;8.83;;;2.60;;
4434;SDS011;46552;52.150;8.428;2023-09-18T09:59:16;7.27;;;2.70;;
4434;SDS011;46552;52.150;8.428;2023-09-18T10:01:46;7.93;;;3.03;;
4434;SDS011;46552;52.150;8.428;2023-09-18T10:04:17;7.37;;;3.00;;
4434;SDS011;46552;52.150;8.428;2023-09-18T10:06:45;13.30;;;2.80;;
4434;SDS011;46552;52.150;8.428;2023-09-18T10:09:19;5.63;;;2.77;;
4434;SDS011;46552;52.150;8.428;2023-09-18T10:11:48;11.77;;;3.33;;
4434;SDS011;46552;52.150;8.428;2023-09-18T10:14:20;11.33;;;3.17;;
4434;SDS011;46552;52.150;8.428;2023-09-18T10:16:51;7.67;;;2.80;;
4434;SDS011;46552;52.150;8.428;2023-09-18T10:19:26;13.70;;;3.00;;
4434;SDS011;46552;52.150;8.428;2023-09-18T10:22:00;7.17;;;2.30;;
4434;SDS011;46552;52.150;8.428;2023-09-18T10:24:36;4.83;;;2.60;;
4434;SDS011;46552;52.150;8.428;2023-09-18T10:27:06;6.90;;;3.17;;
4434;SDS011;46552;52.150;8.428;2023-09-18T10:29:34;10.00;;;3.03;;
4434;SDS011;46552;52.150;8.428;2023-09-18T10:32:04;6.13;;;2.30;;
4434;SDS011;46552;52.150;8.428;2023-09-18T10:34:34;6.67;;;2.30;;
4434;SDS011;46552;52.150;8.428;2023-09-18T10:37:03;8.30;;;2.83;;
4434;SDS011;46552;52.150;8.428;2023-09-18T10:39:31;10.83;;;2.53;;
4434;SDS011;46552;52.150;8.428;2023-09-18T10:42:01;9.33;;;3.10;;
4434;SDS011;46552;52.150;8.428;2023-09-18T10:44:31;6.23;;;2.30;;
4434;SDS011;46552;52.150;8.428;2023-09-18T10:47:00;7.43;;;2.83;;
4434;SDS011;46552;52.150;8.428;2023-09-18T10:49:30;5.30;;;2.33;;
4434;SDS011;46552;52.150;8.428;2023-09-18T10:51:59;7.27;;;2.80;;
4434;SDS011;46552;52.150;8.428;2023-09-18T10:54:30;8.20;;;2.90;;
4434;SDS011;46552;52.150;8.428;2023-09-18T10:56:59;12.93;;;2.53;;
4434;SDS011;46552;52.150;8.428;2023-09-18T10:59:27;8.00;;;2.60;;
4434;SDS011;46552;52.150;8.428;2023-09-18T11:01:56;5.43;;;2.50;;
4434;SDS011;46552;52.150;8.428;2023-09-18T11:04:28;9.73;;;3.30;;
4434;SDS011;46552;52.150;8.428;2023-09-18T11:07:02;9.83;;;2.90;;
4434;SDS011;46552;52.150;8.428;2023-09-18T11:09:32;6.73;;;2.60;;
4434;SDS011;46552;52.150;8.428;2023-09-18T11:12:08;11.33;;;2.47;;
4434;SDS011;46552;52.150;8.428;2023-09-18T11:14:43;5.03;;;2.60;;
4434;SDS011;46552;52.150;8.428;2023-09-18T11:17:27;5.67;;;2.40;;
4434;SDS011;46552;52.150;8.428;2023-09-18T11:20:06;5.93;;;3.10;;
4434;SDS011;46552;52.150;8.428;2023-09-18T11:22:39;6.97;;;2.63;;
4434;SDS011;46552;52.150;8.428;2023-09-18T11:28:13;9.07;;;2.70;;
4434;SDS011;46552;52.150;8.428;2023-09-18T11:30:48;8.00;;;2.43;;
4434;SDS011;46552;52.150;8.428;2023-09-18T11:33:28;6.50;;;3.17;;
4434;SDS011;46552;52.150;8.428;2023-09-18T11:35:57;8.10;;;3.00;;
4434;SDS011;46552;52.150;8.428;2023-09-18T11:38:27;8.17;;;2.80;;
4434;SDS011;46552;52.150;8.428;2023-09-18T11:40:54;8.43;;;2.47;;
4434;SDS011;46552;52.150;8.428;2023-09-18T11:43:23;4.67;;;2.30;;
4434;SDS011;46552;52.150;8.428;2023-09-18T11:45:53;4.60;;;2.63;;
4434;SDS011;46552;52.150;8.428;2023-09-18T11:48:21;6.50;;;2.60;;
4434;SDS011;46552;52.150;8.428;2023-09-18T11:50:53;6.60;;;3.13;;
4434;SDS011;46552;52.150;8.428;2023-09-18T11:53:23;8.07;;;3.07;;
4434;SDS011;46552;52.150;8.428;2023-09-18T11:55:52;6.03;;;2.43;;
4434;SDS011;46552;52.150;8.428;2023-09-18T11:58:20;5.97;;;2.30;;
4434;SDS011;46552;52.150;8.428;2023-09-18T12:00:48;9.67;;;2.23;;
4434;SDS011;46552;52.150;8.428;2023-09-18T12:03:16;5.50;;;2.13;;
4434;SDS011;46552;52.150;8.428;2023-09-18T12:05:51;9.20;;;2.57;;
4434;SDS011;46552;52.150;8.428;2023-09-18T12:08:20;11.90;;;2.77;;
4434;SDS011;46552;52.150;8.428;2023-09-18T12:10:48;6.87;;;2.80;;
4434;SDS011;46552;52.150;8.428;2023-09-18T12:13:18;5.50;;;2.40;;
4434;SDS011;46552;52.150;8.428;2023-09-18T12:15:45;7.40;;;2.20;;
4434;SDS011;46552;52.150;8.428;2023-09-18T12:18:14;6.20;;;2.47;;
4434;SDS011;46552;52.150;8.428;2023-09-18T12:20:46;4.20;;;1.97;;
4434;SDS011;46552;52.150;8.428;2023-09-18T12:23:14;5.47;;;2.20;;
4434;SDS011;46552;52.150;8.428;2023-09-18T12:25:41;7.40;;;2.30;;
4434;SDS011;46552;52.150;8.428;2023-09-18T12:28:11;6.17;;;1.70;;
4434;SDS011;46552;52.150;8.428;2023-09-18T12:30:42;12.33;;;2.50;;
4434;SDS011;46552;52.150;8.428;2023-09-18T12:33:11;6.20;;;2.33;;
4434;SDS011;46552;52.150;8.428;2023-09-18T12:35:40;7.13;;;2.10;;
4434;SDS011;46552;52.150;8.428;2023-09-18T12:38:13;9.90;;;1.97;;
4434;SDS011;46552;52.150;8.428;2023-09-18T12:40:41;4.70;;;2.37;;
4434;SDS011;46552;52.150;8.428;2023-09-18T12:43:11;4.90;;;2.13;;
4434;SDS011;46552;52.150;8.428;2023-09-18T12:45:42;5.30;;;2.00;;
4434;SDS011;46552;52.150;8.428;2023-09-18T12:48:11;3.87;;;1.80;;
4434;SDS011;46552;52.150;8.428;2023-09-18T12:50:39;4.83;;;2.50;;
4434;SDS011;46552;52.150;8.428;2023-09-18T12:53:08;6.63;;;1.60;;
4434;SDS011;46552;52.150;8.428;2023-09-18T12:55:37;4.27;;;2.07;;
4434;SDS011;46552;52.150;8.428;2023-09-18T12:58:05;3.40;;;1.60;;
4434;SDS011;46552;52.150;8.428;2023-09-18T13:00:36;8.13;;;1.60;;
4434;SDS011;46552;52.150;8.428;2023-09-18T13:03:13;3.90;;;2.10;;
4434;SDS011;46552;52.150;8.428;2023-09-18T13:05:40;5.17;;;1.90;;
4434;SDS011;46552;52.150;8.428;2023-09-18T13:08:09;9.03;;;1.60;;
4434;SDS011;46552;52.150;8.428;2023-09-18T13:10:41;9.80;;;2.43;;
4434;SDS011;46552;52.150;8.428;2023-09-18T13:13:17;3.23;;;1.60;;
4434;SDS011;46552;52.150;8.428;2023-09-18T13:15:45;9.53;;;1.87;;
4434;SDS011;46552;52.150;8.428;2023-09-18T13:18:16;4.97;;;2.23;;
4434;SDS011;46552;52.150;8.428;2023-09-18T13:20:45;3.70;;;1.50;;
4434;SDS011;46552;52.150;8.428;2023-09-18T13:23:12;6.33;;;2.07;;
4434;SDS011;46552;52.150;8.428;2023-09-18T13:25:41;5.83;;;1.70;;
4434;SDS011;46552;52.150;8.428;2023-09-18T13:28:10;5.70;;;2.23;;
4434;SDS011;46552;52.150;8.428;2023-09-18T13:30:40;5.33;;;2.70;;
4434;SDS011;46552;52.150;8.428;2023-09-18T13:33:09;4.30;;;1.70;;
4434;SDS011;46552;52.150;8.428;2023-09-18T13:35:40;4.10;;;1.87;;
4434;SDS011;46552;52.150;8.428;2023-09-18T13:38:08;10.87;;;1.67;;
4434;SDS011;46552;52.150;8.428;2023-09-18T13:40:36;5.10;;;2.13;;
4434;SDS011;46552;52.150;8.428;2023-09-18T13:43:03;3.60;;;2.10;;
4434;SDS011;46552;52.150;8.428;2023-09-18T13:45:31;11.77;;;2.37;;
4434;SDS011;46552;52.150;8.428;2023-09-18T13:48:00;11.10;;;2.00;;
4434;SDS011;46552;52.150;8.428;2023-09-18T13:50:28;4.93;;;2.10;;
4434;SDS011;46552;52.150;8.428;2023-09-18T13:52:57;5.40;;;2.10;;
4434;SDS011;46552;52.150;8.428;2023-09-18T13:55:25;4.20;;;1.67;;
4434;SDS011;46552;52.150;8.428;2023-09-18T13:57:52;5.73;;;1.83;;
4434;SDS011;46552;52.150;8.428;2023-09-18T14:00:19;4.37;;;1.90;;
4434;SDS011;46552;52.150;8.428;2023-09-18T14:02:46;2.93;;;1.33;;
4434;SDS011;46552;52.150;8.428;2023-09-18T14:05:13;4.20;;;1.50;;
4434;SDS011;46552;52.150;8.428;2023-09-18T14:07:40;5.50;;;2.20;;
4434;SDS011;46552;52.150;8.428;2023-09-18T14:10:10;4.00;;;1.87;;
4434;SDS011;46552;52.150;8.428;2023-09-18T14:12:37;5.70;;;2.30;;
4434;SDS011;46552;52.150;8.428;2023-09-18T14:15:05;6.40;;;1.93;;
4434;SDS011;46552;52.150;8.428;2023-09-18T14:17:35;4.87;;;2.00;;
4434;SDS011;46552;52.150;8.428;2023-09-18T14:20:04;7.07;;;2.40;;
4434;SDS011;46552;52.150;8.428;2023-09-18T14:22:33;5.13;;;1.93;;
4434;SDS011;46552;52.150;8.428;2023-09-18T14:25:00;5.03;;;1.70;;
4434;SDS011;46552;52.150;8.428;2023-09-18T14:27:31;5.50;;;1.57;;
4434;SDS011;46552;52.150;8.428;2023-09-18T14:29:57;10.20;;;2.07;;
4434;SDS011;46552;52.150;8.428;2023-09-18T14:32:26;9.93;;;2.03;;
4434;SDS011;46552;52.150;8.428;2023-09-18T14:34:53;6.07;;;1.87;;
4434;SDS011;46552;52.150;8.428;2023-09-18T14:37:20;3.80;;;2.07;;
4434;SDS011;46552;52.150;8.428;2023-09-18T14:39:47;8.53;;;1.87;;
4434;SDS011;46552;52.150;8.428;2023-09-18T14:42:14;5.50;;;2.10;;
4434;SDS011;46552;52.150;8.428;2023-09-18T14:44:44;5.73;;;2.00;;
4434;SDS011;46552;52.150;8.428;2023-09-18T14:47:11;3.77;;;1.87;;
4434;SDS011;46552;52.150;8.428;2023-09-18T14:49:39;5.47;;;2.10;;
4434;SDS011;46552;52.150;8.428;2023-09-18T14:52:06;5.57;;;1.60;;
4434;SDS011;46552;52.150;8.428;2023-09-18T14:54:34;5.40;;;2.10;;
4434;SDS011;46552;52.150;8.428;2023-09-18T14:57:01;3.23;;;1.50;;
4434;SDS011;46552;52.150;8.428;2023-09-18T14:59:29;3.13;;;1.63;;
4434;SDS011;46552;52.150;8.428;2023-09-18T15:01:58;3.70;;;1.40;;
4434;SDS011;46552;52.150;8.428;2023-09-18T15:04:25;6.03;;;2.30;;
4434;SDS011;46552;52.150;8.428;2023-09-18T15:06:53;5.93;;;1.83;;